Time;durP1;ratioP1;P1;durP2;ratioP2;P2;SDS_P1;SDS_P2;PMS_P1;PMS_P2;Temp;Humidity;BMP_temperature;BMP_pressure;BME280_temperature;BME280_humidity;BME280_pressure;Samples;Min_cycle;Max_cycle;Signal;HPM_P1;HPM_P2
2023/06/03 00:02:10;;;;;;;4.13;1.40;;;11.80;99.90;;;;;;4996954;28;20037;-75
2023/06/03 00:04:41;;;;;;;5.53;1.40;;;11.70;99.90;;;;;;5013470;28;20038;-75
2023/06/03 00:07:07;;;;;;;4.38;1.38;;;11.70;99.50;;;;;;5013123;28;20489;-74
2023/06/03 00:09:33;;;;;;;5.22;1.35;;;11.60;99.50;;;;;;5013119;28;20042;-74
2023/06/03 00:11:58;;;;;;;6.18;1.40;;;11.60;99.90;;;;;;5013085;28;20502;-75
2023/06/03 00:14:24;;;;;;;4.82;1.40;;;11.60;99.60;;;;;;5013372;28;20375;-74
2023/06/03 00:16:50;;;;;;;4.40;1.30;;;11.50;99.50;;;;;;5012940;28;20179;-74
2023/06/03 00:19:17;;;;;;;3.17;1.27;;;11.50;99.40;;;;;;4996939;28;20037;-76
2023/06/03 00:21:49;;;;;;;3.22;1.30;;;11.40;99.50;;;;;;4980489;28;20073;-75
2023/06/03 00:24:24;;;;;;;3.90;1.38;;;11.40;99.70;;;;;;4974468;28;1137639;-75
2023/06/03 00:26:51;;;;;;;4.25;1.30;;;11.40;99.90;;;;;;4997535;28;20173;-75
2023/06/03 00:29:17;;;;;;;3.70;1.50;;;11.40;99.90;;;;;;4997805;28;20371;-75
2023/06/03 00:31:43;;;;;;;4.47;1.40;;;11.40;99.90;;;;;;4997431;28;20077;-75
2023/06/03 00:34:10;;;;;;;3.53;1.10;;;11.50;99.90;;;;;;5013940;28;20065;-75
2023/06/03 00:36:35;;;;;;;4.53;1.30;;;11.40;99.90;;;;;;5013614;28;20119;-75
2023/06/03 00:39:01;;;;;;;4.53;1.50;;;11.40;99.90;;;;;;5013674;28;20042;-75
2023/06/03 00:41:27;;;;;;;4.97;1.30;;;11.40;99.90;;;;;;5013549;28;20072;-75
2023/06/03 00:43:53;;;;;;;3.33;1.30;;;11.30;99.90;;;;;;4997483;28;20128;-75
2023/06/03 00:46:20;;;;;;;3.28;1.10;;;11.30;99.90;;;;;;4997231;28;20046;-75
2023/06/03 00:48:46;;;;;;;3.47;1.20;;;11.30;99.90;;;;;;5013788;28;20398;-75
2023/06/03 00:51:14;;;;;;;4.40;1.30;;;11.20;99.90;;;;;;4997049;28;20111;-74
2023/06/03 00:53:40;;;;;;;3.28;1.20;;;11.20;99.90;;;;;;4993811;28;20092;-75
2023/06/03 00:56:06;;;;;;;5.43;1.35;;;11.10;99.90;;;;;;4992899;28;20054;-75
2023/06/03 00:58:32;;;;;;;4.25;1.50;;;11.10;99.90;;;;;;4993977;28;20116;-75
2023/06/03 01:00:58;;;;;;;6.72;1.30;;;10.90;99.90;;;;;;4993522;28;20082;-75
2023/06/03 01:03:24;;;;;;;3.22;1.25;;;10.90;99.90;;;;;;4993930;28;20042;-74
2023/06/03 01:06:36;;;;;;;4.30;1.45;;;10.80;99.90;;;;;;4977292;28;20458;-74
2023/06/03 01:09:02;;;;;;;3.17;1.20;;;10.70;98.70;;;;;;4985727;28;20478;-75
2023/06/03 01:11:47;;;;;;;5.32;1.40;;;10.70;99.90;;;;;;4993430;28;20038;-75
2023/06/03 01:14:41;;;;;;;3.22;1.20;;;10.60;99.90;;;;;;4977414;28;20504;-75
2023/06/03 01:17:10;;;;;;;4.13;1.30;;;10.60;99.90;;;;;;4977426;28;20483;-74
2023/06/03 01:19:48;;;;;;;5.93;1.40;;;10.60;99.90;;;;;;4993281;28;20065;-75
2023/06/03 01:22:20;;;;;;;4.20;1.23;;;10.50;99.90;;;;;;4985574;28;20046;-75
2023/06/03 01:24:50;;;;;;;4.28;1.20;;;10.40;99.40;;;;;;4996456;28;20054;-75
2023/06/03 01:27:18;;;;;;;4.43;1.20;;;10.40;99.90;;;;;;5013047;28;20046;-75
2023/06/03 01:29:45;;;;;;;3.70;1.20;;;10.40;99.70;;;;;;4996412;28;20120;-75
2023/06/03 01:32:16;;;;;;;3.95;1.20;;;10.30;99.60;;;;;;5012846;28;20251;-75
2023/06/03 01:34:42;;;;;;;4.10;1.30;;;10.30;99.90;;;;;;5012648;28;20044;-75
2023/06/03 01:37:09;;;;;;;4.60;1.30;;;10.20;99.90;;;;;;5012625;28;20141;-75
2023/06/03 01:39:40;;;;;;;3.92;1.30;;;10.20;99.90;;;;;;5012575;28;20052;-76
2023/06/03 01:42:10;;;;;;;4.57;1.60;;;10.20;99.90;;;;;;5014141;28;20393;-74
2023/06/03 01:44:37;;;;;;;3.70;1.30;;;10.20;99.90;;;;;;5012737;28;20155;-74
2023/06/03 01:47:04;;;;;;;3.50;1.27;;;10.20;99.90;;;;;;4996057;28;20049;-75
2023/06/03 01:49:31;;;;;;;3.35;1.20;;;10.20;99.90;;;;;;5012703;28;20124;-75
2023/06/03 01:52:01;;;;;;;3.00;1.13;;;10.20;99.90;;;;;;4996253;28;20120;-74
2023/06/03 01:54:28;;;;;;;3.10;1.10;;;10.10;99.90;;;;;;4996004;28;20104;-75
2023/06/03 01:56:54;;;;;;;4.10;1.27;;;10.10;99.90;;;;;;5012580;28;20042;-75
2023/06/03 01:59:24;;;;;;;3.70;1.27;;;10.10;99.90;;;;;;5012274;28;20042;-75
2023/06/03 02:01:59;;;;;;;3.78;1.25;;;10.10;99.90;;;;;;4995818;28;20046;-75
2023/06/03 02:04:26;;;;;;;3.53;1.20;;;10.00;99.90;;;;;;5012393;28;20490;-74
2023/06/03 02:06:56;;;;;;;3.42;1.33;;;10.00;99.90;;;;;;5012073;28;20042;-75
2023/06/03 02:09:24;;;;;;;2.95;1.20;;;9.90;99.90;;;;;;4996035;28;20046;-75
2023/06/03 02:11:52;;;;;;;5.95;1.40;;;9.90;99.90;;;;;;4995619;28;20042;-75
2023/06/03 02:14:18;;;;;;;4.57;1.40;;;9.90;99.90;;;;;;5012046;28;20046;-75
2023/06/03 02:16:44;;;;;;;5.85;1.35;;;9.90;99.90;;;;;;4995718;28;20180;-75
2023/06/03 02:19:19;;;;;;;3.72;1.20;;;9.90;99.90;;;;;;5012175;28;20124;-74
2023/06/03 02:21:46;;;;;;;3.83;1.30;;;9.80;99.90;;;;;;5011876;28;20049;-75
2023/06/03 02:24:14;;;;;;;4.10;1.27;;;9.80;99.90;;;;;;4995500;28;20060;-75
2023/06/03 02:26:50;;;;;;;3.53;1.30;;;9.70;99.90;;;;;;5011837;28;20050;-75
2023/06/03 02:29:23;;;;;;;3.92;1.40;;;9.70;99.90;;;;;;5013208;28;20549;-75
2023/06/03 02:31:50;;;;;;;2.90;1.20;;;9.90;99.90;;;;;;5011914;28;20046;-75
2023/06/03 02:34:16;;;;;;;4.90;1.50;;;9.70;99.90;;;;;;5011657;28;20048;-75
2023/06/03 02:36:46;;;;;;;4.78;1.45;;;9.70;99.90;;;;;;4995818;28;20046;-75
2023/06/03 02:39:12;;;;;;;5.60;1.42;;;9.70;99.90;;;;;;5011787;28;20053;-75
2023/06/03 02:41:40;;;;;;;3.92;1.50;;;9.70;99.90;;;;;;5011855;28;20077;-74
2023/06/03 02:44:06;;;;;;;4.68;1.25;;;9.70;99.90;;;;;;5011772;28;20127;-75
2023/06/03 02:46:32;;;;;;;5.78;1.63;;;9.70;99.90;;;;;;5011635;28;20135;-75
2023/06/03 02:48:58;;;;;;;4.53;1.40;;;9.70;99.90;;;;;;5011853;28;20085;-74
2023/06/03 02:51:24;;;;;;;5.07;1.50;;;9.70;99.90;;;;;;5011902;28;20080;-75
2023/06/03 02:53:50;;;;;;;4.18;1.50;;;9.60;99.90;;;;;;5011771;28;20078;-75
2023/06/03 02:56:16;;;;;;;4.78;1.50;;;9.60;99.90;;;;;;4995565;28;20046;-75
2023/06/03 02:58:42;;;;;;;3.75;1.30;;;9.60;99.90;;;;;;4995549;28;20046;-75
2023/06/03 03:01:08;;;;;;;5.57;1.40;;;9.60;99.90;;;;;;5011698;28;20038;-75
2023/06/03 03:03:36;;;;;;;4.65;1.38;;;9.50;99.90;;;;;;4995657;28;20038;-75
2023/06/03 03:06:11;;;;;;;5.85;1.65;;;9.50;99.90;;;;;;5011626;28;20145;-75
2023/06/03 03:08:37;;;;;;;3.35;1.40;;;9.50;99.90;;;;;;5011636;28;20038;-76
2023/06/03 03:11:03;;;;;;;5.05;1.52;;;9.40;99.90;;;;;;5011542;28;20077;-76
2023/06/03 03:13:30;;;;;;;4.10;1.40;;;9.40;99.90;;;;;;5011802;28;20034;-75
2023/06/03 03:15:56;;;;;;;6.25;1.70;;;9.40;99.90;;;;;;4995181;28;20128;-75
2023/06/03 03:18:22;;;;;;;4.70;1.60;;;9.40;99.90;;;;;;4995170;28;20042;-75
2023/06/03 03:20:48;;;;;;;4.47;1.55;;;9.40;99.90;;;;;;4998681;28;20414;-74
2023/06/03 03:23:14;;;;;;;5.40;1.40;;;9.30;99.90;;;;;;4998665;28;20061;-74
2023/06/03 03:25:40;;;;;;;5.68;1.50;;;9.30;99.90;;;;;;5015017;28;20086;-73
2023/06/03 03:28:09;;;;;;;5.47;1.58;;;9.30;99.90;;;;;;4998500;28;20406;-72
2023/06/03 03:30:37;;;;;;;4.38;1.60;;;9.30;99.90;;;;;;4998762;28;20081;-72
2023/06/03 03:33:04;;;;;;;4.47;1.58;;;9.30;99.90;;;;;;5016463;28;20038;-72
2023/06/03 03:35:31;;;;;;;4.97;1.52;;;9.40;99.90;;;;;;5015032;28;20092;-73
2023/06/03 03:38:02;;;;;;;5.88;1.80;;;9.30;99.90;;;;;;5014839;28;20041;-73
2023/06/03 03:40:29;;;;;;;4.65;1.40;;;9.30;99.90;;;;;;5015072;28;20046;-73
2023/06/03 03:42:56;;;;;;;6.40;1.60;;;9.30;99.90;;;;;;5015338;28;20049;-73
2023/06/03 03:45:29;;;;;;;4.28;1.63;;;9.30;99.90;;;;;;4999109;28;20038;-73
2023/06/03 03:48:01;;;;;;;5.20;1.70;;;9.20;99.90;;;;;;5015156;28;20042;-73
2023/06/03 03:50:43;;;;;;;4.05;1.60;;;9.20;99.90;;;;;;4998735;28;20038;-74
2023/06/03 03:53:10;;;;;;;;;;;9.30;99.90;;;;;;4998796;28;20076;-74
2023/06/03 03:55:47;;;;;;;4.15;1.60;;;9.30;99.90;;;;;;5014741;28;19917;-74
2023/06/03 03:58:35;;;;;;;5.47;1.60;;;9.30;99.90;;;;;;4982533;28;20061;-74
2023/06/03 04:01:09;;;;;;;5.13;1.60;;;9.30;99.90;;;;;;5015784;28;20084;-75
2023/06/03 04:03:40;;;;;;;4.50;1.70;;;9.20;99.90;;;;;;4998626;28;20041;-74
2023/06/03 04:06:14;;;;;;;5.07;1.70;;;9.20;99.90;;;;;;5015037;28;20041;-75
2023/06/03 04:08:46;;;;;;;4.20;1.52;;;9.20;99.90;;;;;;4997944;28;20042;-74
2023/06/03 04:11:36;;;;;;;6.00;1.80;;;9.30;99.90;;;;;;5014337;28;20490;-74
2023/06/03 04:14:05;;;;;;;4.63;1.65;;;9.20;99.90;;;;;;5000018;28;20068;-75
2023/06/03 04:16:46;;;;;;;5.93;1.80;;;9.30;99.90;;;;;;5014037;28;20046;-75
2023/06/03 04:19:41;;;;;;;5.00;1.80;;;9.20;99.90;;;;;;5014004;28;20038;-75
2023/06/03 04:22:08;;;;;;;5.70;1.70;;;9.20;99.90;;;;;;5003209;28;20057;-75
2023/06/03 04:24:35;;;;;;;4.72;1.60;;;9.30;99.90;;;;;;4997270;28;20057;-75
2023/06/03 04:27:02;;;;;;;5.22;1.70;;;9.20;99.90;;;;;;4997539;28;20136;-75
2023/06/03 04:29:30;;;;;;;4.30;1.73;;;9.30;99.90;;;;;;5013885;28;20046;-75
2023/06/03 04:31:56;;;;;;;4.68;1.85;;;9.30;99.90;;;;;;5012636;28;20124;-75
2023/06/03 04:34:26;;;;;;;5.75;1.90;;;9.30;99.90;;;;;;4997745;28;20469;-75
2023/06/03 04:36:52;;;;;;;5.57;1.92;;;9.30;99.90;;;;;;5013561;28;20048;-75
2023/06/03 04:39:18;;;;;;;5.45;1.80;;;9.40;99.90;;;;;;4981577;28;20041;-75
2023/06/03 04:41:44;;;;;;;4.88;1.75;;;9.40;99.90;;;;;;5013662;28;20486;-75
2023/06/03 04:44:11;;;;;;;4.80;2.00;;;9.40;99.90;;;;;;5012603;28;20085;-74
2023/06/03 04:46:37;;;;;;;5.85;1.85;;;9.50;99.90;;;;;;4997148;28;20053;-75
2023/06/03 04:49:03;;;;;;;4.82;1.92;;;9.50;99.90;;;;;;4997417;28;20494;-75
2023/06/03 04:51:34;;;;;;;5.40;1.83;;;9.60;99.90;;;;;;5013275;28;20041;-75
2023/06/03 04:54:01;;;;;;;7.03;2.00;;;9.70;99.90;;;;;;5013710;28;20410;-74
2023/06/03 04:56:30;;;;;;;4.10;1.83;;;9.90;99.90;;;;;;5013419;28;20057;-75
2023/06/03 04:58:57;;;;;;;5.70;2.10;;;10.10;99.90;;;;;;5013340;28;20073;-74
2023/06/03 05:01:27;;;;;;;5.43;1.90;;;10.50;99.90;;;;;;4981061;28;20049;-75
2023/06/03 05:03:54;;;;;;;5.38;2.00;;;10.80;99.90;;;;;;5013193;28;20088;-74
2023/06/03 05:06:20;;;;;;;6.40;2.00;;;11.40;99.90;;;;;;4996865;28;20049;-75
2023/06/03 05:08:50;;;;;;;5.13;2.00;;;12.00;99.90;;;;;;5013064;28;20125;-75
2023/06/03 05:11:16;;;;;;;6.38;2.08;;;12.70;99.90;;;;;;4996711;28;20167;-75
2023/06/03 05:13:42;;;;;;;6.40;2.00;;;13.00;98.90;;;;;;5013082;28;20042;-75
2023/06/03 05:16:08;;;;;;;6.57;1.80;;;13.30;99.00;;;;;;4980539;28;20042;-75
2023/06/03 05:18:35;;;;;;;5.18;1.83;;;13.80;99.90;;;;;;4996582;28;20409;-75
2023/06/03 05:21:02;;;;;;;6.63;2.13;;;14.20;98.30;;;;;;4996721;28;20056;-75
2023/06/03 05:23:28;;;;;;;5.15;1.77;;;14.30;94.60;;;;;;5012669;28;20060;-75
2023/06/03 05:25:57;;;;;;;5.03;1.90;;;14.30;96.00;;;;;;4996664;28;20041;-74
2023/06/03 05:28:24;;;;;;;5.30;1.70;;;15.50;96.70;;;;;;4980617;28;20042;-75
2023/06/03 05:30:50;;;;;;;4.97;1.75;;;16.60;93.10;;;;;;4996339;28;20038;-75
2023/06/03 05:33:27;;;;;;;4.68;1.63;;;16.40;89.90;;;;;;4980259;28;20108;-75
2023/06/03 05:35:53;;;;;;;4.25;1.73;;;16.40;90.00;;;;;;5012945;28;20409;-75
2023/06/03 05:38:20;;;;;;;5.88;1.90;;;16.40;90.70;;;;;;4996196;28;20046;-75
2023/06/03 05:40:47;;;;;;;4.57;1.50;;;17.20;88.10;;;;;;4996705;28;20541;-75
2023/06/03 05:43:13;;;;;;;5.40;1.60;;;17.40;85.40;;;;;;4996392;28;20046;-76
2023/06/03 05:45:38;;;;;;;4.57;1.67;;;17.90;80.90;;;;;;4996362;28;20551;-76
2023/06/03 05:48:04;;;;;;;4.35;1.55;;;18.00;74.00;;;;;;4996492;28;20095;-76
2023/06/03 05:50:30;;;;;;;4.00;1.52;;;17.90;74.50;;;;;;5012447;28;20038;-76
2023/06/03 05:52:56;;;;;;;6.47;1.65;;;18.10;74.20;;;;;;5012153;28;20065;-76
2023/06/03 05:55:22;;;;;;;5.13;1.70;;;17.80;69.90;;;;;;4996101;28;20461;-76
2023/06/03 05:57:48;;;;;;;5.63;1.58;;;18.30;72.50;;;;;;5012326;28;20042;-76
2023/06/03 06:00:14;;;;;;;5.72;1.27;;;18.30;68.30;;;;;;5012516;28;20541;-76
2023/06/03 06:02:40;;;;;;;5.63;1.35;;;19.00;68.20;;;;;;5012619;28;20038;-77
2023/06/03 06:05:06;;;;;;;4.28;1.50;;;19.60;65.70;;;;;;4996233;28;20050;-76
2023/06/03 06:07:32;;;;;;;3.92;1.50;;;19.70;61.10;;;;;;5012229;28;20034;-77
2023/06/03 06:09:57;;;;;;;3.95;1.50;;;20.00;60.20;;;;;;5012439;28;20069;-77
2023/06/03 06:12:23;;;;;;;5.15;1.50;;;19.70;59.80;;;;;;5013572;28;20049;-76
2023/06/03 06:14:49;;;;;;;3.63;1.30;;;19.70;59.50;;;;;;5012148;28;20041;-77
2023/06/03 06:17:16;;;;;;;3.95;1.30;;;20.00;59.00;;;;;;5012390;28;20517;-76
2023/06/03 06:19:42;;;;;;;3.90;1.30;;;19.70;58.40;;;;;;5012446;28;20107;-76
2023/06/03 06:22:08;;;;;;;3.80;1.35;;;19.40;55.90;;;;;;5012195;28;20133;-77
2023/06/03 06:24:36;;;;;;;4.13;1.40;;;19.60;57.00;;;;;;5011867;28;20136;-76
2023/06/03 06:27:01;;;;;;;7.53;1.40;;;19.80;55.10;;;;;;5011965;28;20133;-77
2023/06/03 06:29:27;;;;;;;3.63;1.40;;;20.40;59.60;;;;;;4979581;28;20085;-76
2023/06/03 06:31:53;;;;;;;4.68;1.30;;;20.00;55.60;;;;;;4995990;28;20096;-76
2023/06/03 06:34:19;;;;;;;3.85;1.27;;;20.20;54.90;;;;;;5012043;28;20041;-77
2023/06/03 06:36:52;;;;;;;5.13;1.48;;;19.80;52.30;;;;;;5011955;28;20062;-77
2023/06/03 06:39:33;;;;;;;3.22;1.25;;;20.00;54.10;;;;;;4996602;28;20041;-76
2023/06/03 06:42:10;;;;;;;2.78;1.10;;;20.50;52.10;;;;;;5011987;28;20042;-77
2023/06/03 06:44:48;;;;;;;4.75;1.17;;;20.30;52.10;;;;;;5013275;28;20045;-77
2023/06/03 06:47:21;;;;;;;5.43;1.27;;;20.50;52.90;;;;;;5011861;28;20038;-77
2023/06/03 06:49:47;;;;;;;4.18;1.20;;;21.40;52.90;;;;;;5011757;28;20045;-77
2023/06/03 06:52:14;;;;;;;5.50;1.20;;;21.40;50.80;;;;;;5011723;28;20065;-77
2023/06/03 06:54:41;;;;;;;12.57;1.40;;;21.50;49.20;;;;;;5014668;28;20042;-77
2023/06/03 06:57:07;;;;;;;3.30;1.10;;;21.00;49.80;;;;;;5015696;28;20120;-77
2023/06/03 06:59:33;;;;;;;3.92;1.00;;;21.10;47.80;;;;;;5016035;28;20136;-77
2023/06/03 07:01:59;;;;;;;4.70;1.13;;;21.20;48.20;;;;;;5015586;28;20038;-77
2023/06/03 07:04:25;;;;;;;4.53;1.27;;;21.50;47.00;;;;;;4983289;28;20049;-77
2023/06/03 07:06:51;;;;;;;2.88;0.90;;;21.90;46.90;;;;;;5015275;28;20042;-77
2023/06/03 07:09:16;;;;;;;3.58;1.00;;;22.20;43.70;;;;;;5015375;28;20500;-77
2023/06/03 07:11:44;;;;;;;2.50;0.90;;;21.80;47.20;;;;;;5015577;28;20077;-77
2023/06/03 07:14:10;;;;;;;3.33;1.00;;;22.10;46.90;;;;;;5015352;28;20044;-77
2023/06/03 07:16:36;;;;;;;4.57;1.02;;;21.90;42.80;;;;;;5015296;28;20042;-77
2023/06/03 07:19:03;;;;;;;3.47;1.10;;;21.60;45.90;;;;;;5015286;28;20084;-77
2023/06/03 07:21:29;;;;;;;3.65;1.10;;;21.30;45.60;;;;;;4998796;28;20037;-77
2023/06/03 07:23:55;;;;;;;4.35;1.00;;;21.70;47.00;;;;;;5015337;28;20054;-67
2023/06/03 07:26:23;;;;;;;3.38;1.00;;;21.70;44.70;;;;;;5015215;28;20112;-65
2023/06/03 07:28:48;;;;;;;3.92;1.10;;;21.70;45.70;;;;;;5015041;28;20116;-66
2023/06/03 07:31:14;;;;;;;3.15;1.10;;;21.70;45.70;;;;;;5015235;28;20117;-67
2023/06/03 07:33:53;;;;;;;2.88;1.00;;;21.50;46.40;;;;;;4998575;28;20053;-66
2023/06/03 07:36:20;;;;;;;4.10;1.20;;;21.20;45.10;;;;;;5014845;28;20063;-66
2023/06/03 07:38:57;;;;;;;4.00;1.15;;;20.70;46.40;;;;;;5014896;28;20128;-66
2023/06/03 07:41:43;;;;;;;4.00;1.17;;;20.90;47.20;;;;;;5015281;28;20045;-67
2023/06/03 07:44:14;;;;;;;3.25;1.00;;;21.80;45.60;;;;;;4997942;28;20050;-67
2023/06/03 07:46:55;;;;;;;3.45;1.10;;;22.00;47.00;;;;;;5014778;28;20077;-67
2023/06/03 07:49:22;;;;;;;3.55;1.08;;;22.20;44.60;;;;;;4998376;28;20052;-66
2023/06/03 07:51:49;;;;;;;4.22;1.13;;;22.10;45.30;;;;;;5016097;28;20108;-67
2023/06/03 07:54:16;;;;;;;2.85;1.00;;;21.50;45.60;;;;;;5014785;28;20455;-67
2023/06/03 07:56:42;;;;;;;3.35;1.13;;;21.50;46.60;;;;;;4998169;28;20081;-67
2023/06/03 07:59:09;;;;;;;4.35;1.13;;;21.10;44.30;;;;;;4998093;28;20064;-67
2023/06/03 08:01:36;;;;;;;3.63;1.10;;;20.30;45.90;;;;;;5014419;28;20042;-67
2023/06/03 08:04:17;;;;;;;4.45;1.10;;;19.90;46.80;;;;;;5015789;28;20390;-66
2023/06/03 08:06:49;;;;;;;3.20;1.10;;;19.50;48.20;;;;;;5013994;28;20077;-66
2023/06/03 08:09:23;;;;;;;3.00;0.93;;;19.30;48.80;;;;;;5014476;28;20117;-67
2023/06/03 08:11:49;;;;;;;3.92;0.98;;;19.30;48.90;;;;;;5015539;28;20125;-66
2023/06/03 08:14:14;;;;;;;3.42;0.95;;;19.20;47.40;;;;;;5014322;28;20549;-66
2023/06/03 08:16:40;;;;;;;4.03;1.00;;;19.40;49.20;;;;;;5014138;28;20088;-66
2023/06/03 08:19:08;;;;;;;3.85;1.27;;;19.40;47.00;;;;;;4981744;28;20042;-67
2023/06/03 08:21:33;;;;;;;2.53;0.88;;;19.90;47.30;;;;;;4981666;28;20053;-71
2023/06/03 08:24:00;;;;;;;4.05;1.00;;;20.40;47.90;;;;;;5014088;28;20058;-71
2023/06/03 08:26:26;;;;;;;3.28;1.00;;;20.90;45.50;;;;;;5013661;28;20200;-71
2023/06/03 08:28:52;;;;;;;3.55;0.98;;;21.00;45.80;;;;;;5013637;28;20069;-71
2023/06/03 08:31:18;;;;;;;2.88;1.08;;;21.00;45.60;;;;;;5013783;28;20132;-72
2023/06/03 08:33:44;;;;;;;4.70;1.10;;;21.20;45.40;;;;;;5013623;28;20106;-71
2023/06/03 08:36:11;;;;;;;3.30;1.00;;;21.10;44.30;;;;;;5013609;28;20135;-71
2023/06/03 08:38:40;;;;;;;3.83;1.10;;;21.50;46.40;;;;;;5013644;28;20140;-72
2023/06/03 08:41:07;;;;;;;3.10;1.10;;;21.50;44.90;;;;;;4952346;28;20097;-71
2023/06/03 08:43:48;;;;;;;3.33;1.05;;;21.70;43.70;;;;;;4978044;28;20486;-71
2023/06/03 08:46:34;;;;;;;5.25;1.10;;;21.80;43.90;;;;;;4993839;28;20121;-71
2023/06/03 08:49:04;;;;;;;4.63;1.20;;;21.90;44.00;;;;;;4993915;28;20043;-71
2023/06/03 08:51:37;;;;;;;3.88;1.30;;;21.50;42.90;;;;;;4993746;28;20046;-71
2023/06/03 08:54:13;;;;;;;4.35;0.90;;;21.70;42.40;;;;;;4993687;28;20042;-71
2023/06/03 08:56:45;;;;;;;3.03;1.00;;;21.30;41.80;;;;;;4993826;28;20129;-70
2023/06/03 08:59:23;;;;;;;3.35;1.08;;;21.40;42.50;;;;;;4993679;28;20085;-71
2023/06/03 09:01:52;;;;;;;5.30;1.02;;;21.50;43.00;;;;;;4993980;28;20042;-71
2023/06/03 09:04:19;;;;;;;6.68;1.00;;;21.70;43.00;;;;;;4977527;28;20042;-71
2023/06/03 09:06:46;;;;;;;2.85;1.05;;;21.80;42.30;;;;;;4977314;28;20043;-71
2023/06/03 09:09:13;;;;;;;3.92;1.00;;;21.80;41.30;;;;;;4993593;28;20125;-71
2023/06/03 09:11:40;;;;;;;2.28;0.95;;;22.00;42.40;;;;;;4994786;28;20046;-71
2023/06/03 09:14:07;;;;;;;4.20;0.90;;;22.20;42.00;;;;;;4993539;28;20046;-71
2023/06/03 09:16:33;;;;;;;3.03;1.00;;;21.80;41.90;;;;;;4992933;28;20121;-71
2023/06/03 09:18:59;;;;;;;3.25;0.90;;;22.30;41.20;;;;;;4976943;28;20078;-71
2023/06/03 09:21:26;;;;;;;4.15;1.08;;;22.10;40.40;;;;;;4976963;28;20069;-71
2023/06/03 09:23:52;;;;;;;3.95;1.17;;;22.00;42.50;;;;;;4993128;28;20144;-71
2023/06/03 09:26:18;;;;;;;3.97;1.10;;;22.60;43.70;;;;;;4977005;28;20133;-71
2023/06/03 09:28:45;;;;;;;3.33;1.05;;;23.00;42.00;;;;;;4993162;28;20042;-71
2023/06/03 09:31:11;;;;;;;4.85;1.00;;;23.10;41.70;;;;;;4977233;28;20038;-72
2023/06/03 09:33:37;;;;;;;2.75;0.80;;;23.20;42.30;;;;;;4976855;28;20038;-71
2023/06/03 09:36:13;;;;;;;4.22;1.00;;;22.80;39.60;;;;;;4993013;28;20050;-71
2023/06/03 09:38:46;;;;;;;4.50;1.13;;;22.20;40.80;;;;;;4989363;28;20121;-71
2023/06/03 09:41:20;;;;;;;2.92;1.00;;;22.30;43.40;;;;;;4973865;28;20042;-71
2023/06/03 09:44:01;;;;;;;5.78;1.17;;;22.40;41.40;;;;;;4986494;28;20113;-72
2023/06/03 09:46:30;;;;;;;3.15;1.00;;;22.50;40.00;;;;;;4993084;28;20097;-72
2023/06/03 09:49:16;;;;;;;3.80;1.08;;;21.80;41.70;;;;;;4992850;28;20069;-71
2023/06/03 09:51:49;;;;;;;4.32;1.10;;;22.00;41.90;;;;;;4976938;28;20041;-71
2023/06/03 09:54:16;;;;;;;3.28;1.10;;;22.10;42.50;;;;;;4976538;28;20045;-71
2023/06/03 09:56:47;;;;;;;3.58;1.08;;;21.80;40.40;;;;;;4992908;28;20034;-71
2023/06/03 09:59:17;;;;;;;3.95;1.15;;;21.80;41.30;;;;;;4992665;28;20125;-70
2023/06/03 10:01:47;;;;;;;4.00;1.20;;;21.40;41.40;;;;;;4992925;28;20082;-70
2023/06/03 10:04:23;;;;;;;3.83;1.05;;;21.40;41.40;;;;;;4992829;28;20486;-71
2023/06/03 10:07:12;;;;;;;3.50;1.15;;;21.20;41.30;;;;;;4976574;28;20056;-70
2023/06/03 10:09:39;;;;;;;4.20;1.20;;;21.20;41.90;;;;;;4992841;28;20042;-71
2023/06/03 10:12:07;;;;;;;4.75;1.20;;;21.50;41.10;;;;;;4992484;28;20042;-71
2023/06/03 10:14:33;;;;;;;3.75;1.20;;;21.60;40.90;;;;;;4992465;28;20046;-71
2023/06/03 10:17:09;;;;;;;3.38;1.10;;;21.70;40.70;;;;;;4992343;28;20046;-71
2023/06/03 10:19:39;;;;;;;5.18;1.05;;;21.80;42.40;;;;;;4976569;28;20140;-71
2023/06/03 10:22:07;;;;;;;4.35;1.10;;;22.40;41.30;;;;;;4992291;28;20462;-71
2023/06/03 10:24:43;;;;;;;4.43;1.00;;;22.40;40.80;;;;;;4992219;28;20062;-71
2023/06/03 10:27:10;;;;;;;6.05;1.30;;;22.70;41.90;;;;;;4992367;28;20129;-72
2023/06/03 10:29:36;;;;;;;3.70;1.00;;;22.90;40.40;;;;;;4995838;28;20056;-71
2023/06/03 10:32:05;;;;;;;3.95;1.17;;;22.70;40.10;;;;;;4996419;28;20046;-70
2023/06/03 10:34:34;;;;;;;6.40;1.00;;;22.80;39.00;;;;;;4996413;28;20042;-71
2023/06/03 10:37:02;;;;;;;4.57;1.30;;;22.90;40.80;;;;;;4980171;28;20046;-71
2023/06/03 10:39:32;;;;;;;3.80;1.27;;;23.00;41.40;;;;;;4996362;28;20065;-71
2023/06/03 10:42:00;;;;;;;4.40;1.13;;;22.80;38.40;;;;;;4996298;28;20042;-71
2023/06/03 10:44:27;;;;;;;4.60;1.05;;;22.80;40.50;;;;;;4996218;28;20049;-71
2023/06/03 10:47:02;;;;;;;3.92;1.13;;;23.00;41.40;;;;;;4995964;28;20046;-71
2023/06/03 10:49:39;;;;;;;3.72;1.10;;;22.60;39.40;;;;;;4996421;28;20375;-71
2023/06/03 10:52:20;;;;;;;4.45;1.00;;;22.70;39.10;;;;;;4996286;28;20395;-71
2023/06/03 10:55:08;;;;;;;5.45;1.00;;;23.00;39.00;;;;;;4996233;28;20394;-71
2023/06/03 10:57:41;;;;;;;5.40;1.00;;;23.00;39.70;;;;;;4995949;28;20054;-71
2023/06/03 11:00:09;;;;;;;3.80;1.00;;;23.10;39.70;;;;;;4979732;28;20046;-71
2023/06/03 11:03:08;;;;;;;4.80;1.17;;;23.20;39.80;;;;;;4979966;28;20046;-71
2023/06/03 11:05:38;;;;;;;3.58;1.05;;;22.50;38.20;;;;;;4995974;28;20089;-71
2023/06/03 11:08:04;;;;;;;4.90;1.08;;;22.90;38.60;;;;;;4996167;28;20046;-71
2023/06/03 11:10:40;;;;;;;3.70;1.10;;;22.80;39.50;;;;;;4996076;28;20398;-72
2023/06/03 11:13:11;;;;;;;4.20;1.00;;;23.10;40.10;;;;;;4979506;28;20034;-71
2023/06/03 11:16:09;;;;;;;3.97;1.10;;;23.00;38.60;;;;;;4995912;28;20470;-71
2023/06/03 11:18:35;;;;;;;3.50;1.08;;;22.90;38.70;;;;;;4953332;28;20050;-71
2023/06/03 11:21:01;;;;;;;4.18;1.10;;;23.00;39.20;;;;;;4995424;28;20049;-71
2023/06/03 11:23:43;;;;;;;4.07;0.93;;;23.10;39.40;;;;;;4995540;28;20069;-71
2023/06/03 11:26:34;;;;;;;2.80;0.90;;;23.30;37.40;;;;;;4995392;28;20050;-70
2023/06/03 11:29:05;;;;;;;3.80;1.00;;;23.10;38.10;;;;;;4995353;28;20101;-71
2023/06/03 11:31:32;;;;;;;3.45;1.10;;;23.50;39.20;;;;;;4979031;28;20077;-71
2023/06/03 11:34:21;;;;;;;3.75;1.17;;;23.50;38.90;;;;;;4983635;28;20131;-70
2023/06/03 11:36:54;;;;;;;2.70;1.00;;;23.60;38.20;;;;;;4993023;28;20054;-71
2023/06/03 11:39:21;;;;;;;3.60;1.10;;;23.40;38.80;;;;;;4995219;28;20181;-71
2023/06/03 11:42:02;;;;;;;3.80;1.15;;;23.50;37.50;;;;;;4974792;28;20121;-71
2023/06/03 11:44:29;;;;;;;3.55;1.00;;;23.00;38.30;;;;;;4978966;28;20053;-71
2023/06/03 11:46:55;;;;;;;3.60;1.08;;;22.90;38.30;;;;;;4995388;28;20107;-71
2023/06/03 11:49:24;;;;;;;3.65;1.10;;;23.00;40.00;;;;;;4978916;28;20034;-71
2023/06/03 11:51:55;;;;;;;5.53;1.20;;;23.10;39.00;;;;;;4994975;28;20038;-71
2023/06/03 11:54:21;;;;;;;3.42;1.13;;;23.10;38.30;;;;;;4979107;28;20039;-71
2023/06/03 11:56:50;;;;;;;4.28;1.10;;;23.10;38.20;;;;;;4978758;28;20080;-71
2023/06/03 11:59:20;;;;;;;5.05;1.00;;;23.00;38.20;;;;;;4996162;28;20045;-71
2023/06/03 12:02:05;;;;;;;5.70;1.10;;;23.00;37.50;;;;;;4995034;28;20061;-71
2023/06/03 12:04:32;;;;;;;3.70;0.95;;;22.90;37.70;;;;;;4994811;28;20042;-71
2023/06/03 12:06:59;;;;;;;4.00;1.10;;;23.30;37.90;;;;;;4978591;28;20071;-71
2023/06/03 12:09:29;;;;;;;3.25;1.00;;;23.20;38.20;;;;;;4994751;28;20088;-71
2023/06/03 12:11:55;;;;;;;3.42;1.00;;;23.00;37.80;;;;;;4994933;28;20046;-71
2023/06/03 12:14:24;;;;;;;6.68;1.42;;;23.00;38.30;;;;;;4995350;28;20091;-73
2023/06/03 12:16:54;;;;;;;5.70;1.15;;;22.90;37.40;;;;;;4994794;28;20053;-74
2023/06/03 12:19:20;;;;;;;4.43;1.00;;;22.60;38.30;;;;;;4994514;28;20050;-74
2023/06/03 12:21:54;;;;;;;4.70;1.20;;;22.70;38.50;;;;;;4994551;28;20042;-74
2023/06/03 12:24:30;;;;;;;3.58;1.10;;;22.80;38.90;;;;;;4994245;28;20069;-74
2023/06/03 12:26:56;;;;;;;3.88;1.10;;;22.80;38.60;;;;;;4994365;28;20129;-74
2023/06/03 12:29:23;;;;;;;2.47;0.95;;;22.70;37.90;;;;;;4994252;28;20129;-74
2023/06/03 12:32:00;;;;;;;2.63;1.00;;;22.90;39.20;;;;;;4994180;28;20062;-74
2023/06/03 12:34:34;;;;;;;6.85;1.33;;;23.20;37.80;;;;;;4994230;28;20042;-74
2023/06/03 12:37:04;;;;;;;2.83;1.02;;;23.20;37.50;;;;;;4994098;28;20050;-75
2023/06/03 12:39:42;;;;;;;4.32;1.20;;;22.50;36.90;;;;;;4978239;28;20042;-74
2023/06/03 12:42:09;;;;;;;3.78;1.20;;;22.40;37.80;;;;;;4994410;28;20092;-75
2023/06/03 12:44:52;;;;;;;3.00;1.00;;;22.40;38.90;;;;;;4993992;28;20124;-75
2023/06/03 12:47:20;;;;;;;3.22;1.17;;;22.70;38.40;;;;;;4993899;28;20051;-74
2023/06/03 12:50:07;;;;;;;4.50;1.15;;;22.90;40.20;;;;;;4993949;28;20045;-75
2023/06/03 12:52:36;;;;;;;4.57;1.15;;;22.80;36.70;;;;;;4992861;28;20046;-75
2023/06/03 12:55:03;;;;;;;6.40;1.30;;;22.60;37.10;;;;;;4994074;28;20046;-74
2023/06/03 12:57:32;;;;;;;3.88;1.20;;;22.70;37.90;;;;;;4994158;28;20054;-74
2023/06/03 13:00:07;;;;;;;2.97;1.10;;;22.90;38.60;;;;;;4977509;28;20081;-74
2023/06/03 13:02:36;;;;;;;4.90;1.00;;;23.10;38.10;;;;;;4977743;28;20367;-74